Time;durP1;ratioP1;P1;durP2;ratioP2;P2;SDS_P1;SDS_P2;PMS_P1;PMS_P2;Temp;Humidity;BMP_temperature;BMP_pressure;BME280_temperature;BME280_humidity;BME280_pressure;Samples;Min_cycle;Max_cycle;Signal;HPM_P1;HPM_P2
2023/04/13 00:01:15;;;;;;;13.57;5.43;;;;;;;3.75;100.00;99006.81;6116364;28;20032;-93
2023/04/13 00:04:17;;;;;;;10.82;5.72;;;;;;;3.76;100.00;99004.16;6117598;28;20426;-92
2023/04/13 00:07:21;;;;;;;12.48;5.93;;;;;;;3.78;100.00;99009.97;6114354;28;20044;-92
2023/04/13 00:10:24;;;;;;;12.73;6.85;;;;;;;3.77;100.00;99002.41;6098269;28;20062;-92
2023/04/13 00:13:26;;;;;;;11.68;5.82;;;;;;;3.77;100.00;98998.09;6101546;28;20047;-93
2023/04/13 00:16:30;;;;;;;13.48;6.50;;;;;;;3.81;100.00;98996.13;6098578;28;21069;-93
2023/04/13 00:19:35;;;;;;;12.32;5.80;;;;;;;3.78;100.00;98998.94;6104731;28;20051;-93
2023/04/13 00:22:41;;;;;;;13.00;6.85;;;;;;;3.78;100.00;98994.63;6131675;28;20095;-93
2023/04/13 00:25:43;;;;;;;12.90;6.55;;;;;;;3.77;100.00;98995.53;6130118;28;20407;-92
2023/04/13 00:28:45;;;;;;;12.95;6.55;;;;;;;3.77;100.00;98989.63;6133070;28;20514;-93
2023/04/13 00:31:48;;;;;;;15.43;7.40;;;;;;;3.77;100.00;98990.41;6122171;28;20473;-93
2023/04/13 00:34:50;;;;;;;18.33;8.25;;;;;;;3.87;100.00;98985.41;6109967;28;20039;-92
2023/04/13 00:37:52;;;;;;;16.58;8.05;;;;;;;3.84;100.00;98995.91;6133952;28;20043;-93
2023/04/13 00:40:57;;;;;;;13.07;7.82;;;;;;;3.87;100.00;98988.78;6100704;28;20051;-93
2023/04/13 00:43:59;;;;;;;16.17;7.93;;;;;;;3.91;100.00;98997.06;6127579;28;20031;-93
2023/04/13 00:47:03;;;;;;;14.82;7.93;;;;;;;3.98;100.00;98987.19;6120525;28;20055;-92
2023/04/13 00:50:06;;;;;;;14.65;7.28;;;;;;;3.95;100.00;98989.94;6121605;28;20043;-93
2023/04/13 00:53:12;;;;;;;15.18;7.50;;;;;;;3.94;100.00;98986.59;6093534;28;20051;-93
2023/04/13 00:56:14;;;;;;;13.63;7.40;;;;;;;3.90;100.00;98980.09;6110018;28;20517;-93
2023/04/13 00:59:16;;;;;;;17.83;7.10;;;;;;;3.88;100.00;98982.75;6109196;28;20047;-93
2023/04/13 01:02:25;;;;;;;13.02;6.75;;;;;;;3.92;100.00;98987.63;6110187;28;20046;-93
2023/04/13 01:05:34;;;;;;;12.25;6.25;;;;;;;3.92;100.00;98985.88;6098447;28;20074;-93
2023/04/13 01:08:56;;;;;;;10.27;5.93;;;;;;;3.86;100.00;98986.38;6114332;29;20325;-92
2023/04/13 01:12:12;;;;;;;11.00;5.47;;;;;;;3.86;100.00;98997.41;6100362;28;20078;-93
2023/04/13 01:15:16;;;;;;;11.85;5.40;;;;;;;3.88;100.00;98980.19;6113029;28;20050;-93
2023/04/13 01:18:19;;;;;;;11.90;5.63;;;;;;;3.87;100.00;98977.75;6112082;28;20505;-92
2023/04/13 01:21:24;;;;;;;12.40;5.75;;;;;;;3.80;100.00;98974.00;6120878;28;20419;-92
2023/04/13 01:24:40;;;;;;;11.13;5.80;;;;;;;3.83;100.00;98973.81;6108963;28;20395;-93
2023/04/13 01:27:51;;;;;;;12.15;5.40;;;;;;;3.81;100.00;98973.91;6111507;28;20078;-93
2023/04/13 01:30:54;;;;;;;;;;;;;;;3.76;100.00;98973.44;6105126;28;20142;-92
2023/04/13 01:33:57;;;;;;;13.75;7.25;;;;;;;3.75;100.00;98979.50;6123926;28;19933;-92
2023/04/13 01:37:03;;;;;;;12.88;6.78;;;;;;;3.64;100.00;98979.50;6107832;28;20646;-92
2023/04/13 01:40:10;;;;;;;10.95;5.72;;;;;;;3.62;100.00;98982.16;6116763;28;20082;-92
2023/04/13 01:43:17;;;;;;;9.70;5.80;;;;;;;3.58;100.00;98977.41;6125036;28;20039;-92
2023/04/13 01:46:27;;;;;;;8.95;5.50;;;;;;;3.48;100.00;98977.28;6098524;28;20051;-93
2023/04/13 01:49:39;;;;;;;9.90;5.78;;;;;;;3.42;100.00;98963.19;6107089;28;20781;-93
2023/04/13 01:53:10;;;;;;;11.85;5.65;;;;;;;3.37;100.00;98974.69;6111442;28;20055;-93
2023/04/13 01:56:18;;;;;;;7.05;4.82;;;;;;;3.52;100.00;98983.78;6097833;28;20060;-93
2023/04/13 01:59:22;;;;;;;10.55;5.78;;;;;;;3.53;100.00;98970.06;6084433;28;20059;-92
2023/04/13 02:02:25;;;;;;;9.30;5.20;;;;;;;3.39;100.00;98975.41;6118781;28;20399;-93
2023/04/13 02:05:28;;;;;;;12.73;6.00;;;;;;;3.37;100.00;98967.81;6104542;28;20052;-93
2023/04/13 02:08:39;;;;;;;10.40;5.75;;;;;;;3.35;100.00;98973.97;6129135;28;20055;-93
2023/04/13 02:11:43;;;;;;;12.98;5.18;;;;;;;3.30;100.00;98970.94;6109347;28;20058;-92
2023/04/13 02:14:45;;;;;;;9.35;5.72;;;;;;;3.32;100.00;98975.03;6118013;28;20166;-92
2023/04/13 02:17:46;;;;;;;8.45;5.18;;;;;;;3.40;100.00;98977.00;6104039;28;20039;-93
2023/04/13 02:20:59;;;;;;;10.30;5.82;;;;;;;3.33;100.00;98975.84;6104065;28;20054;-93
2023/04/13 02:24:01;;;;;;;10.32;5.25;;;;;;;3.30;100.00;98976.06;6100970;28;20588;-92
2023/04/13 02:27:03;;;;;;;10.18;5.68;;;;;;;3.33;100.00;98973.28;6085424;28;20054;-92
2023/04/13 02:30:08;;;;;;;12.82;5.25;;;;;;;3.30;100.00;98976.06;6123687;28;20036;-93
2023/04/13 02:33:10;;;;;;;9.48;5.90;;;;;;;3.22;100.00;98966.41;6102891;28;20073;-93
2023/04/13 02:36:12;;;;;;;9.40;5.25;;;;;;;3.14;100.00;98969.53;6120262;28;20464;-93
2023/04/13 02:39:22;;;;;;;10.23;6.10;;;;;;;3.21;100.00;98962.22;6102463;28;20064;-93
2023/04/13 02:42:25;;;;;;;11.98;6.03;;;;;;;3.24;100.00;98959.44;6106704;28;20054;-93
2023/04/13 02:45:27;;;;;;;10.93;5.65;;;;;;;3.20;100.00;98963.13;6103472;28;20056;-93
2023/04/13 02:48:29;;;;;;;8.63;5.55;;;;;;;3.16;100.00;98965.13;6089176;28;20055;-94
2023/04/13 02:51:32;;;;;;;10.00;5.38;;;;;;;3.17;100.00;98965.94;6104553;28;20048;-93
2023/04/13 02:54:34;;;;;;;9.48;5.18;;;;;;;3.14;100.00;98974.63;6112474;28;20557;-93
2023/04/13 02:57:35;;;;;;;13.45;5.40;;;;;;;3.15;100.00;98970.34;6099997;28;20047;-93
2023/04/13 03:00:38;;;;;;;11.80;5.40;;;;;;;3.09;100.00;98970.81;6100087;28;20048;-92
2023/04/13 03:03:45;;;;;;;9.02;4.55;;;;;;;3.11;100.00;98972.31;6105569;28;20051;-92
2023/04/13 03:06:47;;;;;;;8.55;5.90;;;;;;;3.18;100.00;98968.38;6102811;29;20047;-93
2023/04/13 03:09:51;;;;;;;9.38;5.82;;;;;;;3.16;100.00;98977.09;6119719;28;20055;-93
2023/04/13 03:12:53;;;;;;;9.98;5.65;;;;;;;3.11;100.00;98976.63;6109745;28;20426;-93
2023/04/13 03:15:56;;;;;;;9.50;5.13;;;;;;;3.04;100.00;98971.13;6130628;28;20066;-93
2023/04/13 03:18:59;;;;;;;8.57;5.22;;;;;;;3.04;100.00;98970.31;6103939;28;20454;-93
2023/04/13 03:22:02;;;;;;;8.93;5.30;;;;;;;2.97;100.00;98969.94;6117158;28;20048;-93
2023/04/13 03:25:07;;;;;;;9.48;5.68;;;;;;;3.05;100.00;98970.19;6116311;28;20039;-93
2023/04/13 03:28:12;;;;;;;9.75;4.88;;;;;;;3.01;100.00;98968.81;6110266;28;20063;-93
2023/04/13 03:31:17;;;;;;;8.68;5.38;;;;;;;2.99;100.00;98966.34;6103291;28;20055;-93
2023/04/13 03:34:20;;;;;;;6.93;4.65;;;;;;;3.01;100.00;98961.94;6115612;29;20506;-93
2023/04/13 03:37:23;;;;;;;7.97;4.80;;;;;;;3.00;100.00;98960.28;6130398;28;20423;-93
2023/04/13 03:40:26;;;;;;;9.18;4.82;;;;;;;3.05;100.00;98957.41;6107249;28;20048;-93
2023/04/13 03:43:29;;;;;;;7.50;4.30;;;;;;;3.09;100.00;98955.47;6113159;28;20056;-93
2023/04/13 03:46:37;;;;;;;7.30;4.97;;;;;;;3.12;100.00;98960.34;6109980;28;20043;-93
2023/04/13 03:49:51;;;;;;;7.22;4.40;;;;;;;3.08;100.00;98959.75;6105000;28;20350;-93
2023/04/13 03:52:53;;;;;;;9.10;4.47;;;;;;;3.09;100.00;98958.03;6110911;28;20131;-93
2023/04/13 03:55:56;;;;;;;6.82;3.83;;;;;;;3.08;100.00;98957.22;6101780;29;20051;-93
2023/04/13 03:58:58;;;;;;;6.05;3.67;;;;;;;2.97;100.00;98955.41;6115823;28;20518;-93
2023/04/13 04:02:07;;;;;;;5.85;3.38;;;;;;;2.98;100.00;98969.00;6110449;28;20058;-94
2023/04/13 04:05:15;;;;;;;6.60;3.28;;;;;;;3.02;100.00;98966.13;6106455;28;20070;-93
2023/04/13 04:08:20;;;;;;;5.63;3.05;;;;;;;3.08;100.00;98961.47;6128183;28;20048;-93
2023/04/13 04:11:22;;;;;;;6.22;3.30;;;;;;;3.18;100.00;98968.38;6109282;28;20055;-93
2023/04/13 04:14:25;;;;;;;4.13;2.78;;;;;;;3.27;100.00;98977.09;6105099;28;20106;-93
2023/04/13 04:17:44;;;;;;;6.22;2.70;;;;;;;3.33;100.00;98968.16;6103447;28;20175;-93
2023/04/13 04:20:46;;;;;;;4.28;2.45;;;;;;;3.36;100.00;98981.56;6104434;28;20052;-93
2023/04/13 04:23:51;;;;;;;3.95;1.80;;;;;;;3.52;100.00;98976.09;6100693;28;20055;-93
2023/04/13 04:26:56;;;;;;;2.25;1.45;;;;;;;3.67;100.00;98985.19;6104960;28;20618;-93
2023/04/13 04:29:59;;;;;;;4.00;1.77;;;;;;;3.81;100.00;98989.28;6100932;28;20410;-91
2023/04/13 04:33:06;;;;;;;3.22;1.63;;;;;;;3.93;100.00;98984.16;6116918;28;20071;-93
2023/04/13 04:36:12;;;;;;;3.15;1.45;;;;;;;4.09;100.00;98989.72;6109552;28;20268;-93
2023/04/13 04:39:25;;;;;;;2.33;1.52;;;;;;;4.23;100.00;98986.09;6108489;28;20569;-93
2023/04/13 04:42:36;;;;;;;1.70;1.20;;;;;;;4.33;100.00;98997.25;6108464;29;20514;-93
2023/04/13 04:45:45;;;;;;;4.82;1.60;;;;;;;4.37;100.00;98980.69;6093996;28;20566;-93
2023/04/13 04:48:53;;;;;;;2.35;1.20;;;;;;;4.48;100.00;98985.81;6101443;28;20059;-93
2023/04/13 04:51:57;;;;;;;2.70;1.23;;;;;;;4.63;100.00;98986.34;6114578;28;20524;-92
2023/04/13 04:54:59;;;;;;;2.83;1.17;;;;;;;4.78;100.00;98994.56;6123490;28;20039;-93
2023/04/13 04:58:05;;;;;;;2.88;1.00;;;;;;;4.93;100.00;98988.22;6100750;28;20044;-93
2023/04/13 05:01:09;;;;;;;2.78;0.95;;;;;;;5.08;100.00;98991.31;6099808;28;20043;-93
2023/04/13 05:04:12;;;;;;;2.50;0.93;;;;;;;5.16;100.00;98978.66;6100443;28;20048;-92
2023/04/13 05:07:17;;;;;;;1.15;0.80;;;;;;;5.26;100.00;98981.28;6108902;28;20048;-93
2023/04/13 05:10:23;;;;;;;1.17;0.75;;;;;;;5.31;100.00;98983.47;6092014;28;20067;-92
2023/04/13 05:13:28;;;;;;;3.83;1.00;;;;;;;5.35;100.00;98983.09;6124636;28;20055;-93
2023/04/13 05:16:43;;;;;;;3.70;1.00;;;;;;;5.36;100.00;98981.34;6108660;28;20169;-93
2023/04/13 05:19:56;;;;;;;3.10;0.98;;;;;;;5.38;100.00;98975.16;6107474;28;20031;-92
2023/04/13 05:23:14;;;;;;;1.70;0.80;;;;;;;5.51;100.00;98985.22;6107891;28;20059;-92
2023/04/13 05:26:24;;;;;;;2.28;0.90;;;;;;;5.64;100.00;98986.75;6103013;28;20071;-92
2023/04/13 05:29:26;;;;;;;1.95;0.70;;;;;;;5.72;100.00;98992.09;6120675;28;20047;-92
2023/04/13 05:32:28;;;;;;;1.63;0.88;;;;;;;5.73;100.00;98993.72;6111896;28;20082;-93
2023/04/13 05:35:33;;;;;;;3.33;1.33;;;;;;;5.83;100.00;98995.38;6107097;28;20051;-92
2023/04/13 05:38:37;;;;;;;2.22;0.90;;;;;;;5.93;100.00;98989.47;6098670;28;20059;-92
2023/04/13 05:41:39;;;;;;;1.30;1.02;;;;;;;5.94;100.00;98996.28;6105472;28;20057;-92
2023/04/13 05:44:42;;;;;;;2.65;0.90;;;;;;;5.93;100.00;98997.16;6104722;28;20055;-92
2023/04/13 05:47:46;;;;;;;1.65;1.02;;;;;;;6.07;100.00;98989.16;6101445;28;20070;-92
2023/04/13 05:50:49;;;;;;;3.20;0.82;;;;;;;6.39;100.00;98994.09;6104716;28;20048;-93
2023/04/13 05:53:52;;;;;;;6.47;1.13;;;;;;;6.62;100.00;98999.00;6127686;28;20046;-93
2023/04/13 05:56:56;;;;;;;3.38;0.90;;;;;;;6.87;100.00;99008.75;6108730;28;20050;-93
2023/04/13 05:59:58;;;;;;;1.88;0.80;;;;;;;7.04;100.00;99009.84;6107279;28;20054;-92
2023/04/13 06:03:14;;;;;;;2.78;0.98;;;;;;;7.22;100.00;99012.53;6129865;28;20062;-92
2023/04/13 06:06:17;;;;;;;0.68;0.55;;;;;;;7.26;100.00;99005.38;6110424;28;20043;-92
2023/04/13 06:09:19;;;;;;;1.50;0.88;;;;;;;7.26;100.00;99000.22;6104680;28;20502;-93
2023/04/13 06:12:20;;;;;;;1.08;0.80;;;;;;;7.36;100.00;98998.44;6125155;28;20048;-92
2023/04/13 06:15:23;;;;;;;1.33;0.80;;;;;;;7.40;100.00;99007.50;6119791;28;20190;-94
2023/04/13 06:18:28;;;;;;;2.08;0.70;;;;;;;7.29;100.00;99011.03;6108798;28;20050;-93
2023/04/13 06:21:30;;;;;;;1.33;0.68;;;;;;;7.11;100.00;99018.66;6132956;28;20144;-92
2023/04/13 06:24:32;;;;;;;2.70;1.00;;;;;;;7.12;100.00;99025.41;6114171;28;20609;-92
2023/04/13 06:27:35;;;;;;;1.45;0.73;;;;;;;7.30;100.00;99012.69;6114661;28;20052;-93
2023/04/13 06:30:38;;;;;;;1.95;0.68;;;;;;;7.44;100.00;99028.63;6119951;28;20043;-92
2023/04/13 06:33:44;;;;;;;3.15;0.60;;;;;;;7.50;100.00;99023.75;6097856;28;20043;-93
2023/04/13 06:36:47;;;;;;;1.02;0.70;;;;;;;7.51;100.00;99027.94;6105392;28;20058;-92
2023/04/13 06:39:52;;;;;;;0.98;0.70;;;;;;;7.54;100.00;99022.50;6110323;28;20082;-93
2023/04/13 06:42:55;;;;;;;1.48;0.70;;;;;;;7.56;100.00;99042.97;6130039;28;20035;-92
2023/04/13 06:46:06;;;;;;;1.23;0.50;;;;;;;7.61;100.00;99040.81;6090686;29;20724;-92
2023/04/13 06:49:13;;;;;;;4.18;0.70;;;;;;;7.75;100.00;99042.94;6109445;28;20035;-92
2023/04/13 06:52:17;;;;;;;1.27;0.60;;;;;;;7.90;100.00;99052.78;6116608;28;20047;-93
2023/04/13 06:55:19;;;;;;;1.55;0.70;;;;;;;8.01;100.00;99047.47;6108068;28;20052;-92
2023/04/13 06:58:22;;;;;;;1.23;0.55;;;;;;;8.07;100.00;99067.50;6127236;28;20526;-92
2023/04/13 07:01:24;;;;;;;1.75;0.63;;;;;;;8.16;100.00;99065.84;6121321;28;20121;-92
2023/04/13 07:04:28;;;;;;;0.77;0.50;;;;;;;8.21;100.00;99086.88;6113115;28;20050;-92
2023/04/13 07:07:34;;;;;;;2.00;0.68;;;;;;;8.24;100.00;99085.78;6129775;28;20407;-92
2023/04/13 07:10:39;;;;;;;5.68;1.08;;;;;;;8.25;100.00;99093.38;6108393;28;20044;-92
2023/04/13 07:13:50;;;;;;;0.88;0.73;;;;;;;8.32;100.00;99091.84;6112405;28;20414;-91
2023/04/13 07:16:52;;;;;;;1.88;0.70;;;;;;;8.54;100.00;99092.44;6115095;28;20126;-90
2023/04/13 07:19:54;;;;;;;0.50;0.50;;;;;;;8.68;100.00;99102.28;6133636;28;20044;-91
2023/04/13 07:22:56;;;;;;;1.65;0.85;;;;;;;8.77;100.00;99106.59;6117387;28;20222;-91
2023/04/13 07:25:59;;;;;;;2.60;0.70;;;;;;;8.76;100.00;99110.09;6101193;28;20296;-91
2023/04/13 07:29:02;;;;;;;0.60;0.50;;;;;;;8.76;100.00;99107.53;6115809;28;20518;-91
2023/04/13 07:32:10;;;;;;;1.75;0.60;;;;;;;8.73;100.00;99102.66;6107275;28;20059;-91
2023/04/13 07:35:14;;;;;;;1.40;0.82;;;;;;;8.71;100.00;99117.47;6112520;28;20220;-89
2023/04/13 07:38:18;;;;;;;3.05;0.80;;;;;;;8.67;100.00;99112.75;6116164;28;20494;-93
2023/04/13 07:41:21;;;;;;;2.25;0.90;;;;;;;8.52;100.00;99122.72;6109110;28;20138;-90
2023/04/13 07:44:27;;;;;;;2.45;0.80;;;;;;;8.40;100.00;99137.59;6111316;29;20112;-90
2023/04/13 07:47:29;;;;;;;2.30;0.60;;;;;;;8.23;100.00;99140.88;6111651;28;20558;-91
2023/04/13 07:50:42;;;;;;;2.50;1.20;;;;;;;8.15;100.00;99150.09;6103018;28;20191;-91
2023/04/13 07:53:51;;;;;;;1.95;0.60;;;;;;;8.10;100.00;99148.88;6110819;28;20553;-90
2023/04/13 07:56:55;;;;;;;4.43;0.82;;;;;;;8.08;100.00;99156.75;6098551;28;20384;-91
2023/04/13 08:00:02;;;;;;;3.58;0.70;;;;;;;8.10;100.00;99165.19;6108105;28;20478;-90
2023/04/13 08:03:15;;;;;;;0.77;0.55;;;;;;;8.15;100.00;99168.16;6130692;28;20581;-90
2023/04/13 08:06:22;;;;;;;2.15;0.70;;;;;;;8.22;100.00;99170.97;6111876;28;20047;-90
2023/04/13 08:09:25;;;;;;;1.10;0.73;;;;;;;8.36;100.00;99175.69;6119903;28;20051;-90
2023/04/13 08:12:27;;;;;;;2.60;0.70;;;;;;;8.48;100.00;99184.09;6094379;28;20055;-90
2023/04/13 08:15:29;;;;;;;2.17;0.65;;;;;;;8.55;100.00;99189.50;6084403;28;20079;-89
2023/04/13 08:18:33;;;;;;;2.13;0.77;;;;;;;8.73;100.00;99189.56;6110645;28;20048;-90
2023/04/13 08:21:39;;;;;;;1.58;0.75;;;;;;;8.94;100.00;99184.97;6105788;28;20058;-90
2023/04/13 08:24:41;;;;;;;4.15;0.90;;;;;;;9.15;100.00;99194.25;6101953;29;20035;-89
2023/04/13 08:27:44;;;;;;;1.65;0.85;;;;;;;9.50;100.00;99188.31;6124148;28;20054;-90
2023/04/13 08:30:47;;;;;;;3.78;0.70;;;;;;;9.84;100.00;99185.06;6102942;28;20133;-90
2023/04/13 08:33:50;;;;;;;1.95;0.70;;;;;;;10.23;100.00;99190.66;6117103;28;20051;-90
2023/04/13 08:36:54;;;;;;;2.78;0.73;;;;;;;10.36;100.00;99187.72;6125652;28;20043;-89
2023/04/13 08:39:59;;;;;;;1.63;0.60;;;;;;;10.25;100.00;99180.16;6101022;28;20044;-89
2023/04/13 08:43:01;;;;;;;2.53;0.70;;;;;;;10.10;100.00;99172.97;6118278;28;20524;-89
2023/04/13 08:46:06;;;;;;;2.28;0.75;;;;;;;9.89;100.00;99177.66;6109272;29;20187;-90
2023/04/13 08:49:10;;;;;;;2.42;0.73;;;;;;;9.87;100.00;99184.75;6110651;28;20115;-90
2023/04/13 08:52:36;;;;;;;2.63;0.55;;;;;;;9.93;100.00;99184.94;6125562;28;20059;-90
2023/04/13 08:55:49;;;;;;;2.88;0.77;;;;;;;9.83;100.00;99186.81;6107215;28;20051;-89
2023/04/13 08:58:57;;;;;;;2.00;0.70;;;;;;;9.71;100.00;99190.59;6099423;29;20055;-89
2023/04/13 09:02:05;;;;;;;5.28;0.90;;;;;;;9.50;100.00;99190.91;6128963;28;20035;-90
2023/04/13 09:05:14;;;;;;;1.50;0.60;;;;;;;9.52;100.00;99201.09;6106346;28;20063;-89
2023/04/13 09:08:23;;;;;;;3.00;0.70;;;;;;;9.78;100.00;99216.66;6102632;28;20036;-89
2023/04/13 09:11:27;;;;;;;0.90;0.60;;;;;;;10.12;100.00;99198.66;6107594;28;20360;-90
2023/04/13 09:14:37;;;;;;;1.85;0.80;;;;;;;10.29;100.00;99215.94;6122960;28;20116;-89
2023/04/13 09:17:39;;;;;;;3.65;0.70;;;;;;;10.71;100.00;99209.25;6107102;28;20076;-92
2023/04/13 09:20:41;;;;;;;1.17;0.77;;;;;;;10.92;100.00;99225.19;6107673;28;20138;-89
2023/04/13 09:23:57;;;;;;;1.40;0.70;;;;;;;11.01;100.00;99220.84;6105217;28;20039;-89
2023/04/13 09:27:00;;;;;;;1.95;0.80;;;;;;;11.30;100.00;99233.41;6099084;28;20040;-90
2023/04/13 09:30:04;;;;;;;3.63;0.95;;;;;;;11.85;100.00;99238.06;6124173;28;20086;-89
2023/04/13 09:33:09;;;;;;;1.65;0.93;;;;;;;12.16;100.00;99240.00;6107328;29;20106;-90
2023/04/13 09:36:22;;;;;;;4.18;0.88;;;;;;;12.16;100.00;99229.63;6118756;28;20043;-89
2023/04/13 09:39:26;;;;;;;1.45;0.60;;;;;;;12.05;100.00;99230.00;6099030;28;20059;-89
2023/04/13 09:42:40;;;;;;;1.77;0.80;;;;;;;12.27;100.00;99234.50;6106359;28;20079;-89
2023/04/13 09:45:43;;;;;;;2.58;0.93;;;;;;;12.41;100.00;99234.81;6123862;28;20035;-89
2023/04/13 09:48:45;;;;;;;0.70;0.70;;;;;;;12.53;100.00;99236.09;6139602;28;20054;-89
2023/04/13 09:51:47;;;;;;;2.72;1.08;;;;;;;12.42;100.00;99239.84;6131179;28;20051;-89
2023/04/13 09:54:50;;;;;;;1.95;1.20;;;;;;;12.70;100.00;99253.25;6131814;28;20059;-89
2023/04/13 09:57:52;;;;;;;1.33;1.00;;;;;;;13.05;100.00;99250.38;6117973;28;20201;-90
2023/04/13 10:00:55;;;;;;;2.80;1.20;;;;;;;13.24;100.00;99254.34;6126231;28;20518;-90
2023/04/13 10:03:57;;;;;;;2.25;1.38;;;;;;;12.72;100.00;99253.09;6139938;28;20046;-90
2023/04/13 10:07:00;;;;;;;3.10;1.23;;;;;;;12.31;100.00;99252.34;6126723;28;20416;-90
2023/04/13 10:10:03;;;;;;;1.98;1.10;;;;;;;11.97;100.00;99266.28;6127122;28;20039;-89
2023/04/13 10:13:17;;;;;;;1.73;1.40;;;;;;;11.71;100.00;99274.97;6126288;28;20052;-89
2023/04/13 10:17:04;;;;;;;2.10;1.20;;;;;;;11.27;100.00;99275.16;6124391;28;20434;-90
2023/04/13 10:20:09;;;;;;;1.70;1.05;;;;;;;11.31;100.00;99275.69;6116419;28;20291;-89
2023/04/13 10:23:12;;;;;;;2.15;1.00;;;;;;;11.27;100.00;99272.56;6124876;28;20055;-90
2023/04/13 10:26:14;;;;;;;2.58;1.25;;;;;;;11.46;100.00;99283.66;6126111;28;20050;-89
2023/04/13 10:29:26;;;;;;;2.80;1.10;;;;;;;11.59;100.00;99286.59;6131524;28;20509;-89
2023/04/13 10:32:28;;;;;;;2.88;1.40;;;;;;;11.40;100.00;99293.69;6129609;28;20496;-89
2023/04/13 10:35:34;;;;;;;1.35;1.25;;;;;;;11.55;100.00;99296.50;6119089;28;20043;-89
2023/04/13 10:38:42;;;;;;;1.15;1.10;;;;;;;11.82;100.00;99305.75;6107445;28;20040;-90
2023/04/13 10:41:44;;;;;;;1.08;0.93;;;;;;;11.94;100.00;99302.91;6135459;28;20114;-90
2023/04/13 10:44:50;;;;;;;2.95;1.30;;;;;;;11.98;100.00;99299.03;6117222;28;20043;-89
2023/04/13 10:47:53;;;;;;;1.08;0.98;;;;;;;11.94;100.00;99300.31;6134961;28;20043;-89
2023/04/13 10:50:57;;;;;;;3.25;1.20;;;;;;;12.03;100.00;99307.13;6140592;28;20043;-89
2023/04/13 10:54:07;;;;;;;1.80;1.10;;;;;;;12.69;100.00;99306.16;6114384;28;20505;-89
2023/04/13 10:57:10;;;;;;;3.47;1.25;;;;;;;13.07;100.00;99316.78;6129058;28;20039;-89
2023/04/13 11:00:20;;;;;;;1.15;1.05;;;;;;;13.48;100.00;99308.84;6119450;28;20141;-89
2023/04/13 11:03:32;;;;;;;1.35;0.90;;;;;;;13.71;100.00;99318.47;6117986;28;20058;-89
2023/04/13 11:06:40;;;;;;;1.83;1.00;;;;;;;13.56;100.00;99318.38;6122325;28;20051;-89
2023/04/13 11:09:44;;;;;;;1.58;1.00;;;;;;;13.42;100.00;99322.53;6129796;28;20521;-89
2023/04/13 11:12:50;;;;;;;1.17;1.00;;;;;;;13.03;100.00;99319.88;6128287;28;20047;-88
2023/04/13 11:16:01;;;;;;;1.52;1.05;;;;;;;13.28;100.00;99321.44;6136700;28;20410;-90
2023/04/13 11:19:04;;;;;;;2.45;0.80;;;;;;;13.67;100.00;99332.81;6118064;28;20070;-91
2023/04/13 11:22:06;;;;;;;1.45;0.82;;;;;;;14.32;100.00;99321.97;6119979;28;20039;-90
2023/04/13 11:25:14;;;;;;;1.05;0.95;;;;;;;14.23;100.00;99330.81;6140363;28;20042;-90
2023/04/13 11:28:15;;;;;;;2.47;0.93;;;;;;;14.00;100.00;99343.81;6107294;28;20043;-90
2023/04/13 11:31:17;;;;;;;1.63;1.13;;;;;;;14.05;100.00;99349.31;6119728;28;20126;-90
2023/04/13 11:34:33;;;;;;;1.77;1.20;;;;;;;13.90;100.00;99344.03;6112099;29;20438;-90
2023/04/13 11:37:40;;;;;;;1.10;0.82;;;;;;;13.74;100.00;99344.16;6120339;28;20047;-91
2023/04/13 11:40:44;;;;;;;1.60;1.13;;;;;;;13.99;100.00;99347.41;6124256;28;20130;-90
2023/04/13 11:43:47;;;;;;;2.67;1.17;;;;;;;14.37;100.00;99345.69;6119943;28;20179;-91
2023/04/13 11:46:51;;;;;;;0.98;0.88;;;;;;;14.77;100.00;99359.38;6128785;28;20495;-90
2023/04/13 11:49:54;;;;;;;2.08;1.20;;;;;;;14.57;100.00;99361.66;6128044;28;20494;-90
2023/04/13 11:53:08;;;;;;;1.58;1.20;;;;;;;14.33;100.00;99367.81;6131950;28;20048;-90
2023/04/13 11:56:10;;;;;;;1.83;1.10;;;;;;;14.36;100.00;99364.91;6128313;28;20167;-91
2023/04/13 11:59:23;;;;;;;2.40;1.20;;;;;;;14.38;100.00;99378.56;6137169;28;20465;-91
2023/04/13 12:02:39;;;;;;;1.10;1.10;;;;;;;14.27;100.00;99385.94;6105034;28;20043;-91
2023/04/13 12:06:06;;;;;;;2.40;1.13;;;;;;;14.45;100.00;99368.22;6107416;28;20051;-90
2023/04/13 12:09:11;;;;;;;1.35;1.25;;;;;;;14.64;100.00;99380.00;6127180;28;20039;-91
2023/04/13 12:12:21;;;;;;;3.10;1.20;;;;;;;14.75;100.00;99379.56;6128376;28;20051;-91
2023/04/13 12:15:28;;;;;;;2.83;1.45;;;;;;;14.72;100.00;99389.53;6123423;28;20533;-90
2023/04/13 12:18:47;;;;;;;1.27;1.17;;;;;;;14.67;100.00;99392.66;6126428;28;20074;-90
2023/04/13 12:21:54;;;;;;;1.63;1.42;;;;;;;14.14;100.00;99391.72;6124046;28;20545;-90
2023/04/13 12:24:57;;;;;;;1.98;1.58;;;;;;;13.71;100.00;99397.31;6124515;28;20101;-90
2023/04/13 12:28:02;;;;;;;1.60;1.50;;;;;;;13.56;100.00;99418.03;6127293;28;20059;-91
2023/04/13 12:31:06;;;;;;;1.98;1.45;;;;;;;13.23;100.00;99419.03;6123312;28;20051;-89
2023/04/13 12:34:08;;;;;;;3.17;1.67;;;;;;;13.17;100.00;99422.28;6125615;28;20043;-90
2023/04/13 12:37:10;;;;;;;2.38;1.67;;;;;;;13.12;100.00;99413.22;6106662;28;20625;-90
2023/04/13 12:40:14;;;;;;;1.90;1.80;;;;;;;12.90;100.00;99419.88;6127372;28;20418;-88
2023/04/13 12:43:16;;;;;;;2.35;1.95;;;;;;;12.78;100.00;99410.00;6128052;28;20118;-89
2023/04/13 12:46:19;;;;;;;3.10;1.67;;;;;;;13.24;100.00;99415.44;6115853;28;20047;-89
2023/04/13 12:49:21;;;;;;;2.05;1.20;;;;;;;13.89;100.00;99417.06;6122160;28;20465;-89
2023/04/13 12:52:22;;;;;;;1.73;1.58;;;;;;;14.15;100.00;99414.97;6105293;28;20052;-89
2023/04/13 12:55:24;;;;;;;1.88;1.40;;;;;;;14.38;100.00;99428.03;6126861;28;20048;-89
2023/04/13 12:58:26;;;;;;;2.08;1.40;;;;;;;14.10;100.00;99432.09;6101200;28;20040;-89
2023/04/13 13:01:28;;;;;;;1.83;1.38;;;;;;;13.43;100.00;99419.50;6107017;28;20051;-88
2023/04/13 13:04:31;;;;;;;1.80;1.70;;;;;;;13.19;100.00;99434.16;6118711;28;20126;-89
2023/04/13 13:07:33;;;;;;;1.80;1.45;;;;;;;13.84;100.00;99427.97;6100337;28;20082;-89
2023/04/13 13:10:36;;;;;;;1.45;1.35;;;;;;;14.41;100.00;99432.88;6133646;28;20421;-89
2023/04/13 13:13:38;;;;;;;2.55;1.48;;;;;;;14.79;100.00;99424.31;6124496;28;20129;-89
2023/04/13 13:16:40;;;;;;;2.13;1.65;;;;;;;14.93;100.00;99426.16;6124496;28;20039;-89
2023/04/13 13:19:42;;;;;;;1.10;1.00;;;;;;;14.88;100.00;99431.09;6133050;28;20047;-89
2023/04/13 13:22:46;;;;;;;2.17;1.45;;;;;;;15.16;100.00;99443.56;6126934;28;20043;-89
2023/04/13 13:25:49;;;;;;;2.97;1.10;;;;;;;15.52;100.00;99446.25;6110973;28;20051;-89
2023/04/13 13:29:10;;;;;;;2.30;1.33;;;;;;;15.68;100.00;99443.47;6119415;28;20044;-90
2023/04/13 13:32:13;;;;;;;2.38;1.30;;;;;;;16.08;100.00;99451.03;6133626;28;20101;-89
2023/04/13 13:35:15;;;;;;;2.17;1.35;;;;;;;16.74;100.00;99456.94;6104150;28;20032;-89
2023/04/13 13:38:17;;;;;;;1.20;1.10;;;;;;;16.69;100.00;99456.66;6113847;28;20044;-90
2023/04/13 13:41:19;;;;;;;1.80;1.50;;;;;;;16.06;99.59;99466.88;6101779;28;20040;-89
2023/04/13 13:44:21;;;;;;;1.70;1.50;;;;;;;15.27;100.00;99466.56;6119787;28;20070;-89
2023/04/13 13:47:23;;;;;;;1.70;1.60;;;;;;;15.19;100.00;99464.84;6117304;28;20039;-89
2023/04/13 13:50:26;;;;;;;2.33;1.75;;;;;;;15.24;100.00;99467.72;6096957;28;20051;-89
2023/04/13 13:53:30;;;;;;;2.45;1.38;;;;;;;15.07;100.00;99476.69;6108321;28;20047;-89
2023/04/13 13:56:32;;;;;;;1.50;1.40;;;;;;;14.90;100.00;99465.59;6099311;28;20126;-88
2023/04/13 13:59:34;;;;;;;1.63;1.52;;;;;;;14.73;100.00;99482.31;6125887;28;20050;-88
2023/04/13 14:02:36;;;;;;;1.90;1.70;;;;;;;14.53;100.00;99481.94;6131190;28;20498;-89
2023/04/13 14:05:38;;;;;;;1.98;1.60;;;;;;;14.23;100.00;99484.38;6126384;28;20035;-89
2023/04/13 14:08:40;;;;;;;3.08;1.60;;;;;;;13.71;100.00;99487.50;6108537;28;20051;-89
2023/04/13 14:11:42;;;;;;;2.67;1.60;;;;;;;13.40;100.00;99477.84;6113925;28;20043;-89
2023/04/13 14:14:43;;;;;;;2.67;1.95;;;;;;;13.48;100.00;99477.81;6128429;28;20048;-88
2023/04/13 14:17:46;;;;;;;1.98;1.77;;;;;;;13.66;100.00;99479.41;6116650;28;20027;-89
2023/04/13 14:21:07;;;;;;;2.13;1.52;;;;;;;13.85;100.00;99481.63;6109516;28;20043;-88
2023/04/13 14:24:09;;;;;;;1.80;1.70;;;;;;;13.79;100.00;99482.31;6111198;28;20043;-88
2023/04/13 14:27:11;;;;;;;2.50;1.70;;;;;;;13.95;100.00;99482.22;6119015;28;20048;-88